Time;durP1;ratioP1;P1;durP2;ratioP2;P2;SDS_P1;SDS_P2;PMS_P1;PMS_P2;Temp;Humidity;BMP_temperature;BMP_pressure;BME280_temperature;BME280_humidity;BME280_pressure;Samples;Min_cycle;Max_cycle;Signal;HPM_P1;HPM_P2
2023/12/04 00:01:53;;;;;;;0.30;0.30;;;;;;;-4.50;100.00;96453.91;5036614;28;20856;-76
2023/12/04 00:04:39;;;;;;;0.20;0.20;;;;;;;-4.46;100.00;96447.41;5045064;28;20102;-77
2023/12/04 00:07:25;;;;;;;0.20;0.20;;;;;;;-4.48;100.00;96441.50;5046071;28;20048;-76
2023/12/04 00:10:11;;;;;;;0.30;0.30;;;;;;;-4.52;100.00;96441.00;5044147;28;20040;-76
2023/12/04 00:12:57;;;;;;;0.20;0.20;;;;;;;-4.47;100.00;96434.50;5044108;28;20115;-76
2023/12/04 00:15:44;;;;;;;0.20;0.20;;;;;;;-4.40;100.00;96428.50;5045526;28;20071;-77
2023/12/04 00:18:29;;;;;;;0.20;0.20;;;;;;;-4.42;100.00;96417.38;5045704;28;20763;-77
2023/12/04 00:21:15;;;;;;;0.20;0.20;;;;;;;-4.40;100.00;96425.88;5037529;28;20044;-77
2023/12/04 00:24:02;;;;;;;0.20;0.20;;;;;;;-4.38;100.00;96426.53;5045897;28;20067;-76
2023/12/04 00:26:48;;;;;;;0.20;0.20;;;;;;;-4.40;100.00;96431.09;5044155;28;20048;-76
2023/12/04 00:29:33;;;;;;;0.20;0.20;;;;;;;-4.42;100.00;96433.06;5024654;28;20597;-76
2023/12/04 00:32:19;;;;;;;0.20;0.20;;;;;;;-4.50;100.00;96423.41;5045054;28;20051;-76
2023/12/04 00:35:06;;;;;;;0.20;0.20;;;;;;;-4.55;100.00;96417.00;5043157;28;20044;-76
2023/12/04 00:37:51;;;;;;;0.20;0.20;;;;;;;-4.62;100.00;96408.13;5045476;28;20627;-77
2023/12/04 00:40:37;;;;;;;0.20;0.20;;;;;;;-4.59;100.00;96402.59;5043467;28;20048;-77
2023/12/04 00:43:23;;;;;;;0.25;0.25;;;;;;;-4.61;100.00;96401.94;5045969;28;20049;-77
2023/12/04 00:46:09;;;;;;;0.20;0.20;;;;;;;-4.61;100.00;96402.75;5045700;28;20115;-77
2023/12/04 00:48:55;;;;;;;0.20;0.20;;;;;;;-4.72;100.00;96392.59;5044838;28;20083;-77
2023/12/04 00:51:41;;;;;;;0.20;0.20;;;;;;;-4.73;100.00;96395.34;5046308;28;20529;-77
2023/12/04 00:54:27;;;;;;;0.20;0.20;;;;;;;-4.72;100.00;96397.00;5045217;28;20119;-77
2023/12/04 00:57:12;;;;;;;0.10;0.10;;;;;;;-4.76;100.00;96389.44;5044660;28;20822;-77
2023/12/04 00:59:58;;;;;;;0.20;0.20;;;;;;;-4.74;100.00;96386.72;5045174;28;20040;-76
2023/12/04 01:02:44;;;;;;;0.20;0.20;;;;;;;-4.73;100.00;96384.91;5042279;28;20041;-76
2023/12/04 01:05:30;;;;;;;0.30;0.30;;;;;;;-4.79;100.00;96379.31;5046411;28;20052;-77
2023/12/04 01:08:16;;;;;;;0.20;0.20;;;;;;;-4.75;100.00;96379.81;5049443;28;20068;-77
2023/12/04 01:11:02;;;;;;;0.20;0.20;;;;;;;-4.68;100.00;96377.41;5046813;28;20288;-76
2023/12/04 01:13:48;;;;;;;0.22;0.22;;;;;;;-4.68;100.00;96375.63;5046712;28;20489;-76
2023/12/04 01:16:34;;;;;;;0.20;0.20;;;;;;;-4.73;100.00;96370.06;5049412;28;20416;-77
2023/12/04 01:19:20;;;;;;;0.20;0.20;;;;;;;-4.67;100.00;96368.59;5048528;28;20051;-76
2023/12/04 01:22:07;;;;;;;0.20;0.20;;;;;;;-4.69;100.00;96363.53;5048105;28;20071;-77
2023/12/04 01:24:53;;;;;;;0.20;0.20;;;;;;;-4.79;100.00;96371.50;5047379;28;20141;-76
2023/12/04 01:27:38;;;;;;;0.20;0.20;;;;;;;-4.87;100.00;96381.88;5047413;28;20493;-76
2023/12/04 01:30:24;;;;;;;0.20;0.20;;;;;;;-4.89;100.00;96381.25;5047417;28;20105;-76
2023/12/04 01:33:10;;;;;;;0.20;0.20;;;;;;;-4.93;100.00;96372.06;5044811;28;20044;-76
2023/12/04 01:35:56;;;;;;;0.20;0.20;;;;;;;-5.01;100.00;96374.63;5048158;28;20111;-75
2023/12/04 01:38:42;;;;;;;0.20;0.20;;;;;;;-4.98;100.00;96374.34;5048264;28;20044;-76
2023/12/04 01:41:28;;;;;;;0.20;0.20;;;;;;;-5.04;100.00;96380.16;5035891;28;20127;-76
2023/12/04 01:44:14;;;;;;;0.20;0.20;;;;;;;-5.08;100.00;96371.81;5048344;28;20043;-76
2023/12/04 01:46:59;;;;;;;0.20;0.20;;;;;;;-5.07;100.00;96370.00;5040612;28;20812;-77
2023/12/04 01:49:46;;;;;;;0.20;0.20;;;;;;;-5.01;100.00;96372.00;5049481;28;20048;-77
2023/12/04 01:52:33;;;;;;;0.20;0.20;;;;;;;-4.97;100.00;96369.94;5048307;28;20042;-77
2023/12/04 01:55:21;;;;;;;0.20;0.20;;;;;;;-4.94;100.00;96367.81;5047166;28;20912;-77
2023/12/04 01:58:07;;;;;;;0.20;0.20;;;;;;;-4.93;100.00;96359.00;5048148;28;20051;-77
2023/12/04 02:00:53;;;;;;;0.20;0.20;;;;;;;-4.91;100.00;96351.03;5046012;28;20044;-76
2023/12/04 02:03:41;;;;;;;0.20;0.20;;;;;;;-4.90;100.00;96343.06;5048063;28;20780;-76
2023/12/04 02:06:27;;;;;;;0.20;0.20;;;;;;;-4.90;100.00;96345.66;5048577;28;20052;-76
2023/12/04 02:09:16;;;;;;;0.20;0.20;;;;;;;-4.95;100.00;96342.69;5048904;28;20051;-76
2023/12/04 02:12:02;;;;;;;0.20;0.20;;;;;;;-4.92;100.00;96339.75;5034905;28;20697;-76
2023/12/04 02:14:48;;;;;;;0.20;0.20;;;;;;;-4.99;100.00;96332.69;5047184;28;20073;-76
2023/12/04 02:17:34;;;;;;;0.20;0.20;;;;;;;-5.08;100.00;96332.66;5045605;28;20037;-76
2023/12/04 02:20:20;;;;;;;0.20;0.20;;;;;;;-5.08;100.00;96331.84;5048613;28;20037;-76
2023/12/04 02:23:06;;;;;;;0.10;0.10;;;;;;;-5.10;100.00;96328.56;5047521;28;20037;-76
2023/12/04 02:25:58;;;;;;;0.20;0.20;;;;;;;-5.13;100.00;96324.50;5034498;28;20041;-76
2023/12/04 02:28:53;;;;;;;0.20;0.20;;;;;;;-5.14;100.00;96329.84;5046097;28;20124;-75
2023/12/04 02:31:41;;;;;;;0.20;0.20;;;;;;;-5.22;100.00;96321.97;5045779;28;20528;-76
2023/12/04 02:34:29;;;;;;;0.10;0.10;;;;;;;-5.22;100.00;96319.34;5046691;28;20042;-76
2023/12/04 02:37:16;;;;;;;0.20;0.20;;;;;;;-5.24;100.00;96305.66;5045220;28;20644;-76
2023/12/04 02:40:03;;;;;;;0.17;0.17;;;;;;;-5.18;100.00;96315.47;5045899;28;20666;-76
2023/12/04 02:42:49;;;;;;;0.20;0.20;;;;;;;-5.17;100.00;96304.88;5046230;28;20044;-76
2023/12/04 02:45:34;;;;;;;0.20;0.20;;;;;;;-5.04;100.00;96291.44;5044558;28;20059;-78
2023/12/04 02:48:20;;;;;;;0.20;0.20;;;;;;;-5.03;100.00;96293.06;5047840;28;20769;-76
2023/12/04 02:51:07;;;;;;;0.10;0.10;;;;;;;-5.01;100.00;96290.28;5040244;28;20117;-77
2023/12/04 02:53:53;;;;;;;0.25;0.25;;;;;;;-5.02;100.00;96284.25;5045097;28;20048;-76
2023/12/04 02:56:38;;;;;;;0.20;0.20;;;;;;;-5.00;100.00;96266.63;5037657;28;20516;-77
2023/12/04 02:59:24;;;;;;;0.20;0.20;;;;;;;-5.02;100.00;96266.00;5044632;28;20045;-77
2023/12/04 03:02:10;;;;;;;0.20;0.20;;;;;;;-5.07;100.00;96273.47;5047119;28;20051;-77
2023/12/04 03:04:56;;;;;;;0.20;0.20;;;;;;;-5.18;100.00;96268.53;5036471;28;20107;-78
2023/12/04 03:07:42;;;;;;;0.20;0.20;;;;;;;-5.17;100.00;96264.94;5042965;28;20076;-76
2023/12/04 03:10:28;;;;;;;0.15;0.15;;;;;;;-5.12;100.00;96254.84;5037154;28;20523;-76
2023/12/04 03:13:14;;;;;;;0.20;0.20;;;;;;;-5.15;100.00;96252.53;5044389;28;20155;-76
2023/12/04 03:16:00;;;;;;;0.20;0.20;;;;;;;-5.16;100.00;96245.69;5045919;28;21087;-76
2023/12/04 03:18:45;;;;;;;0.20;0.20;;;;;;;-5.13;100.00;96234.97;5046483;28;20087;-77
2023/12/04 03:21:31;;;;;;;0.17;0.17;;;;;;;-5.09;100.00;96228.44;5046613;28;20715;-76
2023/12/04 03:24:17;;;;;;;0.20;0.20;;;;;;;-5.09;100.00;96231.06;5046820;28;20124;-76
2023/12/04 03:27:03;;;;;;;0.20;0.20;;;;;;;-5.10;100.00;96229.41;5044438;28;20200;-76
2023/12/04 03:29:49;;;;;;;0.20;0.20;;;;;;;-5.07;100.00;96223.88;5043960;28;20094;-76
2023/12/04 03:32:35;;;;;;;0.10;0.10;;;;;;;-5.14;100.00;96220.25;5037846;28;20094;-77
2023/12/04 03:35:21;;;;;;;0.20;0.20;;;;;;;-5.10;100.00;96224.19;5047282;28;20063;-78
2023/12/04 03:38:07;;;;;;;0.20;0.20;;;;;;;-5.15;100.00;96214.22;5044116;28;20032;-77
2023/12/04 03:40:52;;;;;;;0.20;0.20;;;;;;;-5.12;100.00;96220.94;5042204;28;20049;-76
2023/12/04 03:43:38;;;;;;;0.20;0.20;;;;;;;-5.17;100.00;96202.31;5045804;28;21277;-76
2023/12/04 03:46:24;;;;;;;0.20;0.20;;;;;;;-5.21;100.00;96203.63;5048228;28;20045;-76
2023/12/04 03:49:10;;;;;;;0.20;0.20;;;;;;;-5.20;100.00;96194.81;5046273;28;20120;-76
2023/12/04 03:51:56;;;;;;;0.15;0.15;;;;;;;-5.22;100.00;96201.97;5043542;28;20037;-76
2023/12/04 03:54:42;;;;;;;0.20;0.20;;;;;;;-5.20;100.00;96198.25;5044741;28;20068;-76
2023/12/04 03:57:28;;;;;;;0.20;0.20;;;;;;;-5.25;100.00;96197.06;5046559;28;20041;-76
2023/12/04 04:00:14;;;;;;;0.20;0.20;;;;;;;-5.23;100.00;96171.63;5045810;28;20477;-76
2023/12/04 04:03:00;;;;;;;0.10;0.10;;;;;;;-5.24;100.00;96185.66;5037680;28;20413;-76
2023/12/04 04:05:46;;;;;;;0.20;0.20;;;;;;;-5.26;100.00;96193.63;5043629;28;20468;-76
2023/12/04 04:08:32;;;;;;;0.20;0.20;;;;;;;-5.29;100.00;96193.13;5044785;28;20041;-76
2023/12/04 04:11:18;;;;;;;0.20;0.20;;;;;;;-5.35;100.00;96187.56;5044841;28;20627;-77
2023/12/04 04:14:04;;;;;;;0.28;0.28;;;;;;;-5.29;100.00;96178.31;5043713;28;20724;-76
2023/12/04 04:16:50;;;;;;;0.20;0.20;;;;;;;-5.30;100.00;96178.44;5046187;28;20076;-76
2023/12/04 04:19:36;;;;;;;0.20;0.20;;;;;;;-5.29;100.00;96173.09;5044038;28;20048;-76
2023/12/04 04:22:22;;;;;;;0.20;0.20;;;;;;;-5.30;100.00;96196.72;5043151;28;20090;-76
2023/12/04 04:25:08;;;;;;;0.10;0.10;;;;;;;-5.30;100.00;96186.28;5049843;28;20048;-76
2023/12/04 04:27:54;;;;;;;0.20;0.20;;;;;;;-5.25;100.00;96189.25;5044221;28;20047;-76
2023/12/04 04:30:40;;;;;;;0.20;0.20;;;;;;;-5.22;100.00;96181.09;5045277;28;20064;-76
2023/12/04 04:33:26;;;;;;;0.20;0.20;;;;;;;-5.20;100.00;96172.16;5045203;28;20095;-76
2023/12/04 04:36:12;;;;;;;0.20;0.20;;;;;;;-5.18;100.00;96175.41;5045819;28;20775;-76
2023/12/04 04:38:58;;;;;;;0.20;0.20;;;;;;;-5.11;100.00;96176.41;5044516;28;20587;-77
2023/12/04 04:41:44;;;;;;;0.20;0.20;;;;;;;-5.12;100.00;96174.78;5050285;28;20444;-76
2023/12/04 04:44:30;;;;;;;0.20;0.20;;;;;;;-5.22;100.00;96166.25;5048488;28;20556;-76
2023/12/04 04:47:16;;;;;;;0.20;0.20;;;;;;;-5.23;100.00;96171.63;5047901;28;20032;-76
2023/12/04 04:50:02;;;;;;;0.20;0.20;;;;;;;-5.30;100.00;96160.19;5047150;28;20063;-76
2023/12/04 04:52:48;;;;;;;0.20;0.20;;;;;;;-5.42;100.00;96160.47;5046107;28;20040;-77
2023/12/04 04:55:34;;;;;;;0.20;0.20;;;;;;;-5.46;100.00;96166.16;5048102;28;20116;-77
2023/12/04 04:58:20;;;;;;;0.20;0.20;;;;;;;-5.52;100.00;96149.38;5047193;28;20699;-77
2023/12/04 05:01:06;;;;;;;0.20;0.20;;;;;;;-5.57;100.00;96151.59;5036084;28;20514;-77
2023/12/04 05:03:52;;;;;;;0.20;0.20;;;;;;;-5.59;100.00;96160.56;5051414;28;20060;-77
2023/12/04 05:06:38;;;;;;;0.20;0.20;;;;;;;-5.65;100.00;96151.56;5051739;28;20463;-76
2023/12/04 05:09:24;;;;;;;0.20;0.20;;;;;;;-5.67;100.00;96148.31;5051922;28;20107;-76
2023/12/04 05:12:12;;;;;;;0.20;0.20;;;;;;;-5.68;100.00;96149.25;5049181;28;20942;-76
2023/12/04 05:14:58;;;;;;;0.20;0.20;;;;;;;-5.70;100.00;96151.22;5052165;28;20124;-77
2023/12/04 05:17:44;;;;;;;0.20;0.20;;;;;;;-5.69;100.00;96148.44;5051908;28;20109;-77
2023/12/04 05:20:30;;;;;;;0.20;0.20;;;;;;;-5.70;100.00;96141.59;5051750;28;20461;-77
2023/12/04 05:23:16;;;;;;;0.30;0.30;;;;;;;-5.78;100.00;96146.78;5049755;28;20076;-77
2023/12/04 05:26:02;;;;;;;0.20;0.20;;;;;;;-5.72;100.00;96137.53;5052708;28;20047;-77
2023/12/04 05:28:48;;;;;;;0.30;0.30;;;;;;;-5.72;100.00;96140.13;5050282;28;20486;-77
2023/12/04 05:31:33;;;;;;;0.30;0.30;;;;;;;-5.70;100.00;96146.00;5048898;28;20108;-77
2023/12/04 05:34:19;;;;;;;0.20;0.20;;;;;;;-5.71;100.00;96123.50;5052062;28;20043;-77
2023/12/04 05:37:05;;;;;;;0.30;0.30;;;;;;;-5.68;100.00;96120.59;5051525;28;20101;-77
2023/12/04 05:39:51;;;;;;;0.20;0.20;;;;;;;-5.71;100.00;96123.50;5040905;28;20094;-77
2023/12/04 05:42:37;;;;;;;0.17;0.17;;;;;;;-5.73;100.00;96123.69;5051114;28;20037;-77
2023/12/04 05:45:23;;;;;;;0.10;0.10;;;;;;;-5.74;100.00;96110.81;5048787;28;20179;-77
2023/12/04 05:48:09;;;;;;;0.30;0.30;;;;;;;-5.79;100.00;96102.63;5049768;28;20068;-77
2023/12/04 05:50:55;;;;;;;0.20;0.20;;;;;;;-5.82;100.00;96113.38;5051848;28;20063;-77
2023/12/04 05:53:41;;;;;;;0.20;0.20;;;;;;;-5.88;100.00;96105.19;5049671;28;20072;-77
2023/12/04 05:56:27;;;;;;;0.20;0.20;;;;;;;-5.86;100.00;96094.59;5051258;28;20040;-77
2023/12/04 05:59:13;;;;;;;0.10;0.10;;;;;;;-5.86;100.00;96096.41;5049409;28;20041;-77
2023/12/04 06:01:59;;;;;;;0.20;0.20;;;;;;;-5.88;100.00;96105.19;5049131;28;20040;-78
2023/12/04 06:04:45;;;;;;;0.20;0.20;;;;;;;-5.86;100.00;96105.03;5050182;28;20080;-78
2023/12/04 06:07:31;;;;;;;0.20;0.20;;;;;;;-5.88;100.00;96093.94;5037032;28;20043;-79
2023/12/04 06:10:17;;;;;;;0.20;0.20;;;;;;;-5.81;100.00;96107.19;5048736;28;20032;-79
2023/12/04 06:13:03;;;;;;;0.20;0.20;;;;;;;-5.75;100.00;96104.78;5049236;28;20602;-75
2023/12/04 06:15:49;;;;;;;0.20;0.20;;;;;;;-5.69;100.00;96100.69;5049511;28;20507;-78
2023/12/04 06:18:35;;;;;;;0.20;0.20;;;;;;;-5.71;100.00;96092.22;5047713;28;20862;-77
2023/12/04 06:21:21;;;;;;;0.20;0.20;;;;;;;-5.71;100.00;96097.44;5049069;28;20044;-78
2023/12/04 06:24:08;;;;;;;0.20;0.20;;;;;;;-5.72;100.00;96094.03;5048826;28;20082;-79
2023/12/04 06:26:54;;;;;;;0.20;0.20;;;;;;;-5.78;100.00;96089.44;5049768;28;20091;-79
2023/12/04 06:29:40;;;;;;;0.20;0.20;;;;;;;-5.78;100.00;96107.66;5050888;28;20074;-77
2023/12/04 06:32:27;;;;;;;0.20;0.20;;;;;;;-5.78;100.00;96106.84;5034014;28;20040;-77
2023/12/04 06:35:13;;;;;;;0.22;0.22;;;;;;;-5.78;100.00;96102.47;5049831;28;20122;-78
2023/12/04 06:38:06;;;;;;;0.20;0.20;;;;;;;-5.76;100.00;96097.09;5048675;28;20622;-79
2023/12/04 06:40:52;;;;;;;0.20;0.20;;;;;;;-5.80;100.00;96095.78;5050198;28;20155;-78
2023/12/04 06:43:38;;;;;;;0.20;0.20;;;;;;;-5.80;100.00;96088.78;5050287;28;20037;-78
2023/12/04 06:46:28;;;;;;;0.20;0.20;;;;;;;-5.77;100.00;96093.66;5048619;28;20044;-79
2023/12/04 06:49:17;;;;;;;0.13;0.13;;;;;;;-5.69;100.00;96079.84;5048763;28;20138;-78
2023/12/04 06:52:03;;;;;;;0.20;0.20;;;;;;;-5.65;100.00;96070.75;5047305;28;20425;-78
2023/12/04 06:54:50;;;;;;;0.20;0.20;;;;;;;-5.62;100.00;96075.63;5051178;28;20483;-78
2023/12/04 06:57:36;;;;;;;0.20;0.20;;;;;;;-5.55;100.00;96049.75;5046230;28;20033;-77
2023/12/04 07:00:21;;;;;;;0.20;0.20;;;;;;;-5.45;100.00;96050.44;5047937;28;20048;-76
2023/12/04 07:03:07;;;;;;;0.10;0.10;;;;;;;-5.45;100.00;96040.81;5043705;28;20063;-76
2023/12/04 07:05:53;;;;;;;0.10;0.10;;;;;;;-5.43;100.00;96035.47;5050074;28;20049;-78
2023/12/04 07:08:39;;;;;;;0.17;0.17;;;;;;;-5.39;100.00;96036.75;5048627;28;20048;-78
2023/12/04 07:11:27;;;;;;;0.20;0.20;;;;;;;-5.44;100.00;96023.41;5049031;28;20123;-77
2023/12/04 07:14:13;;;;;;;0.20;0.20;;;;;;;-5.46;100.00;96030.53;5047090;28;20048;-78
2023/12/04 07:17:00;;;;;;;0.30;0.30;;;;;;;-5.42;100.00;96022.25;5047845;28;20044;-78
2023/12/04 07:19:46;;;;;;;0.20;0.20;;;;;;;-5.45;100.00;96021.75;5045964;28;20060;-77
2023/12/04 07:22:32;;;;;;;0.20;0.20;;;;;;;-5.38;100.00;96012.31;5031617;28;20083;-77
2023/12/04 07:25:18;;;;;;;0.20;0.20;;;;;;;-5.34;100.00;96024.88;5048498;28;20040;-78
2023/12/04 07:28:04;;;;;;;0.20;0.20;;;;;;;-5.33;100.00;96021.28;5049179;28;20037;-78
2023/12/04 07:30:50;;;;;;;0.20;0.20;;;;;;;-5.25;100.00;96017.06;5048747;28;20025;-78
2023/12/04 07:33:36;;;;;;;0.20;0.20;;;;;;;-5.24;100.00;96013.47;5035627;28;20048;-78
2023/12/04 07:36:23;;;;;;;0.20;0.20;;;;;;;-5.22;100.00;96006.28;5048937;28;20047;-79
2023/12/04 07:39:10;;;;;;;0.20;0.20;;;;;;;-5.18;100.00;95999.78;5036364;28;20105;-78
2023/12/04 07:41:56;;;;;;;0.20;0.20;;;;;;;-5.20;100.00;96012.19;5047362;28;20041;-78
2023/12/04 07:44:42;;;;;;;0.20;0.20;;;;;;;-5.15;100.00;96007.28;5050100;28;20682;-77
2023/12/04 07:47:28;;;;;;;0.20;0.20;;;;;;;-5.15;100.00;96004.69;5047827;28;20396;-77
2023/12/04 07:50:14;;;;;;;0.30;0.30;;;;;;;-5.12;100.00;96006.97;5046300;28;20090;-78
2023/12/04 07:53:00;;;;;;;0.20;0.20;;;;;;;-5.05;100.00;95997.53;5034457;28;20114;-78
2023/12/04 07:55:48;;;;;;;0.20;0.20;;;;;;;-5.10;100.00;95990.16;5048374;28;20047;-78
2023/12/04 07:58:33;;;;;;;0.20;0.20;;;;;;;-5.06;100.00;96008.91;5049962;28;20404;-78
2023/12/04 08:01:19;;;;;;;0.20;0.20;;;;;;;-4.98;100.00;96008.94;5048092;28;20029;-78
2023/12/04 08:04:07;;;;;;;0.20;0.20;;;;;;;-4.94;100.00;96007.63;5034353;28;20049;-77
2023/12/04 08:06:53;;;;;;;0.20;0.20;;;;;;;-4.93;100.00;95998.00;5047655;28;20855;-78
2023/12/04 08:09:41;;;;;;;0.20;0.20;;;;;;;-4.84;100.00;96007.44;5035415;28;20045;-78
2023/12/04 08:12:27;;;;;;;0.20;0.20;;;;;;;-4.74;100.00;96007.31;5048374;28;20045;-76
2023/12/04 08:15:13;;;;;;;0.20;0.20;;;;;;;-4.69;100.00;96012.84;5048237;28;20539;-76
2023/12/04 08:18:00;;;;;;;0.20;0.20;;;;;;;-4.61;100.00;96005.81;5039802;28;20036;-77
2023/12/04 08:20:46;;;;;;;0.20;0.20;;;;;;;-4.53;100.00;95997.94;5049465;28;20068;-79
2023/12/04 08:23:32;;;;;;;0.20;0.20;;;;;;;-4.46;100.00;95990.28;5049861;28;20040;-78
2023/12/04 08:26:24;;;;;;;0.20;0.20;;;;;;;-4.42;100.00;95998.63;5044484;28;20122;-78
2023/12/04 08:29:11;;;;;;;0.20;0.20;;;;;;;-4.40;100.00;95994.84;5051639;28;20048;-79
2023/12/04 08:31:56;;;;;;;0.20;0.20;;;;;;;-4.36;100.00;96001.34;5049985;28;20045;-78
2023/12/04 08:34:42;;;;;;;0.20;0.20;;;;;;;-4.39;100.00;95996.47;5051788;28;20048;-77
2023/12/04 08:37:28;;;;;;;0.20;0.20;;;;;;;-4.32;100.00;95988.78;5053007;28;20769;-78
2023/12/04 08:40:14;;;;;;;0.20;0.20;;;;;;;-4.27;100.00;95971.63;5049872;28;20405;-78
2023/12/04 08:43:00;;;;;;;0.20;0.20;;;;;;;-4.23;100.00;95977.31;5050402;28;20054;-78
2023/12/04 08:45:46;;;;;;;0.20;0.20;;;;;;;-4.21;100.00;95970.13;5050361;28;20126;-78
2023/12/04 08:48:32;;;;;;;0.20;0.20;;;;;;;-4.27;100.00;95971.63;5049859;28;20037;-77
2023/12/04 08:51:18;;;;;;;0.20;0.20;;;;;;;-4.13;100.00;95945.75;5044140;28;20033;-78
2023/12/04 08:54:04;;;;;;;0.20;0.20;;;;;;;-4.21;100.00;95954.44;5038642;28;20036;-78
2023/12/04 08:56:50;;;;;;;0.20;0.20;;;;;;;-4.37;100.00;95965.75;5050616;28;20067;-78
2023/12/04 08:59:36;;;;;;;0.20;0.20;;;;;;;-4.40;100.00;95966.09;5052009;28;20873;-78
2023/12/04 09:02:22;;;;;;;0.20;0.20;;;;;;;-4.36;100.00;95961.34;5052473;28;20060;-78
2023/12/04 09:05:08;;;;;;;0.10;0.10;;;;;;;-4.42;100.00;95968.06;5051584;28;20041;-78
2023/12/04 09:07:54;;;;;;;0.20;0.20;;;;;;;-4.37;100.00;95972.78;5050135;28;20470;-78
2023/12/04 09:10:40;;;;;;;0.20;0.20;;;;;;;-4.33;100.00;95971.47;5050821;28;20060;-77
2023/12/04 09:13:25;;;;;;;0.20;0.20;;;;;;;-4.27;100.00;95953.34;5051004;28;20040;-78
2023/12/04 09:16:11;;;;;;;0.28;0.28;;;;;;;-4.20;100.00;95961.31;5048923;28;20045;-78
2023/12/04 09:18:57;;;;;;;0.20;0.20;;;;;;;-4.17;100.00;95955.75;5049053;28;20071;-78
2023/12/04 09:21:44;;;;;;;0.20;0.20;;;;;;;-4.13;100.00;95961.44;5051620;28;20439;-78
2023/12/04 09:24:31;;;;;;;0.20;0.20;;;;;;;-4.15;100.00;95953.78;5051867;28;20532;-78
2023/12/04 09:27:16;;;;;;;0.20;0.20;;;;;;;-4.15;100.00;95953.78;5047532;28;20044;-78
2023/12/04 09:30:04;;;;;;;0.20;0.20;;;;;;;-4.02;100.00;95953.25;5049305;28;20048;-78
2023/12/04 09:32:50;;;;;;;0.20;0.20;;;;;;;-4.01;100.00;95949.63;5048822;28;20048;-78
2023/12/04 09:35:36;;;;;;;0.20;0.20;;;;;;;-3.92;100.00;95943.38;5037361;28;20047;-78
2023/12/04 09:38:22;;;;;;;0.30;0.30;;;;;;;-3.87;100.00;95942.88;5033778;28;20074;-77
2023/12/04 09:41:12;;;;;;;0.20;0.20;;;;;;;-3.92;100.00;95938.16;5051676;28;20052;-78
2023/12/04 09:43:57;;;;;;;0.30;0.30;;;;;;;-3.81;100.00;95943.00;5048701;28;20123;-77
2023/12/04 09:46:44;;;;;;;0.20;0.20;;;;;;;-3.74;100.00;95935.28;5052107;28;20124;-77
2023/12/04 09:49:31;;;;;;;0.20;0.20;;;;;;;-3.85;100.00;95943.50;5050772;28;20052;-77
2023/12/04 09:52:19;;;;;;;0.20;0.20;;;;;;;-3.90;100.00;95944.00;5049903;28;20572;-77
2023/12/04 09:55:05;;;;;;;0.20;0.20;;;;;;;-4.00;100.00;95938.19;5049888;28;20047;-77
2023/12/04 09:57:51;;;;;;;0.25;0.25;;;;;;;-4.14;100.00;95931.06;5047871;28;20051;-77
2023/12/04 10:00:37;;;;;;;0.20;0.20;;;;;;;-4.09;100.00;95934.81;5035516;28;20036;-77
2023/12/04 10:03:24;;;;;;;0.20;0.20;;;;;;;-4.02;100.00;95933.13;5052931;28;20091;-77
2023/12/04 10:06:16;;;;;;;0.20;0.20;;;;;;;-3.97;100.00;95917.78;5050858;28;20044;-77
2023/12/04 10:09:03;;;;;;;0.20;0.20;;;;;;;-3.88;100.00;95922.97;5048894;28;20044;-77
2023/12/04 10:11:55;;;;;;;0.20;0.20;;;;;;;-3.56;100.00;95921.94;5050394;28;20036;-78
2023/12/04 10:14:41;;;;;;;0.20;0.20;;;;;;;-3.45;100.00;95921.53;5050280;28;20091;-77
2023/12/04 10:17:33;;;;;;;0.20;0.20;;;;;;;-3.60;100.00;95915.41;5050860;28;20044;-77
2023/12/04 10:20:23;;;;;;;0.20;0.20;;;;;;;-3.62;100.00;95922.63;5051202;28;20110;-76
2023/12/04 10:23:09;;;;;;;0.20;0.20;;;;;;;-3.47;100.00;95915.66;5040424;28;20102;-76
2023/12/04 10:25:55;;;;;;;0.20;0.20;;;;;;;-3.52;100.00;95910.94;5051061;28;20394;-76
2023/12/04 10:28:59;;;;;;;0.20;0.20;;;;;;;-3.40;100.00;95900.91;5050159;28;20552;-76
2023/12/04 10:31:44;;;;;;;0.20;0.20;;;;;;;-3.50;100.00;95905.53;5047383;28;20214;-77
2023/12/04 10:34:33;;;;;;;0.20;0.20;;;;;;;-3.31;100.00;95886.75;5048858;28;20041;-77
2023/12/04 10:37:20;;;;;;;0.20;0.20;;;;;;;-3.30;100.00;95880.53;5046547;28;20044;-77
2023/12/04 10:40:09;;;;;;;0.20;0.20;;;;;;;-3.48;100.00;95885.25;5036804;28;20097;-77
2023/12/04 10:43:10;;;;;;;0.30;0.30;;;;;;;-3.42;100.00;95876.72;5049009;28;20032;-77
2023/12/04 10:45:56;;;;;;;0.30;0.30;;;;;;;-3.58;100.00;95872.44;5047968;28;20040;-77
2023/12/04 10:48:44;;;;;;;0.20;0.20;;;;;;;-3.46;100.00;95872.81;5049148;28;20302;-77
2023/12/04 10:51:30;;;;;;;0.20;0.20;;;;;;;-3.40;100.00;95857.22;5047563;28;20524;-77
2023/12/04 10:54:16;;;;;;;0.17;0.17;;;;;;;-3.28;100.00;95860.22;5047336;28;20040;-77
2023/12/04 10:57:04;;;;;;;0.20;0.20;;;;;;;-3.06;100.00;95855.13;5049469;28;20048;-77
2023/12/04 10:59:54;;;;;;;0.20;0.20;;;;;;;-2.82;100.00;95852.25;5047087;28;20041;-77
2023/12/04 11:02:48;;;;;;;0.20;0.20;;;;;;;-2.73;100.00;95845.94;5036590;28;20144;-76
2023/12/04 11:05:39;;;;;;;0.20;0.20;;;;;;;-2.69;100.00;95839.34;5049691;28;20037;-76
2023/12/04 11:08:28;;;;;;;;;;;;;;;-2.80;100.00;95824.13;5047116;28;20062;-76
2023/12/04 11:11:27;;;;;;;0.20;0.20;;;;;;;-2.70;100.00;95819.41;5047552;28;19912;-76
2023/12/04 11:14:18;;;;;;;0.20;0.20;;;;;;;-2.52;100.00;95821.63;5047267;28;20062;-77
2023/12/04 11:17:08;;;;;;;0.20;0.20;;;;;;;-2.73;100.00;95816.31;5047237;28;20119;-78
2023/12/04 11:20:07;;;;;;;0.20;0.20;;;;;;;-2.39;100.00;95813.13;5048234;28;20511;-77
2023/12/04 11:22:54;;;;;;;0.20;0.20;;;;;;;-2.41;100.00;95794.16;5046066;28;20182;-77
2023/12/04 11:25:40;;;;;;;0.20;0.20;;;;;;;-2.48;100.00;95796.72;5047288;28;20083;-77
2023/12/04 11:28:28;;;;;;;0.20;0.20;;;;;;;-2.57;100.00;95797.78;5048866;28;20051;-77
2023/12/04 11:31:14;;;;;;;0.20;0.20;;;;;;;-3.02;100.00;95785.72;5048799;28;20037;-77
2023/12/04 11:34:04;;;;;;;0.20;0.20;;;;;;;-2.88;100.00;95785.72;5047092;28;20047;-77
2023/12/04 11:36:51;;;;;;;0.20;0.20;;;;;;;-3.52;100.00;95774.09;5047798;28;20106;-77
2023/12/04 11:39:37;;;;;;;0.20;0.20;;;;;;;-3.44;100.00;95769.59;5049190;28;20036;-78
2023/12/04 11:42:24;;;;;;;0.30;0.30;;;;;;;-3.34;100.00;95764.13;5047793;28;20855;-77
2023/12/04 11:45:19;;;;;;;0.20;0.20;;;;;;;-3.81;100.00;95762.59;5050059;28;20792;-77
2023/12/04 11:48:05;;;;;;;0.28;0.28;;;;;;;-3.81;100.00;95762.59;5045510;28;20045;-78
2023/12/04 11:50:51;;;;;;;0.20;0.20;;;;;;;-3.69;100.00;95750.72;5048849;28;20044;-77
2023/12/04 11:53:39;;;;;;;0.20;0.20;;;;;;;-3.86;100.00;95753.66;5045741;28;20132;-77
2023/12/04 11:56:25;;;;;;;0.17;0.17;;;;;;;-3.84;100.00;95756.91;5045185;28;20041;-78
2023/12/04 11:59:12;;;;;;;0.20;0.20;;;;;;;-3.84;100.00;95754.28;5045148;28;20119;-78
2023/12/04 12:01:58;;;;;;;0.20;0.20;;;;;;;-3.68;100.00;95735.84;5047228;28;20466;-77
2023/12/04 12:04:45;;;;;;;0.20;0.20;;;;;;;-3.67;100.00;95727.81;5036167;28;20058;-77
2023/12/04 12:07:32;;;;;;;0.20;0.20;;;;;;;-3.89;100.00;95718.22;5047178;28;20090;-78
2023/12/04 12:10:17;;;;;;;0.20;0.20;;;;;;;-4.00;100.00;95716.84;5048079;28;20629;-78
2023/12/04 12:13:03;;;;;;;0.20;0.20;;;;;;;-4.09;100.00;95724.91;5049592;28;20123;-77
2023/12/04 12:15:51;;;;;;;0.20;0.20;;;;;;;-4.15;100.00;95713.34;5046568;28;20509;-78
2023/12/04 12:18:37;;;;;;;0.20;0.20;;;;;;;-3.98;100.00;95698.34;5035057;28;20156;-77
2023/12/04 12:21:23;;;;;;;0.20;0.20;;;;;;;-4.13;100.00;95698.31;5047562;28;20094;-77
2023/12/04 12:24:11;;;;;;;0.20;0.20;;;;;;;-4.09;100.00;95694.38;5047424;28;20059;-77
2023/12/04 12:26:57;;;;;;;0.28;0.28;;;;;;;-3.92;100.00;95679.34;5048367;28;20975;-77
2023/12/04 12:29:43;;;;;;;0.20;0.20;;;;;;;-3.87;100.00;95678.84;5046276;28;20048;-77
2023/12/04 12:32:29;;;;;;;0.20;0.20;;;;;;;-3.96;100.00;95671.06;5047992;28;20040;-77
2023/12/04 12:35:15;;;;;;;0.20;0.20;;;;;;;-3.67;100.00;95667.66;5047939;28;20060;-77
2023/12/04 12:38:01;;;;;;;0.20;0.20;;;;;;;-3.79;100.00;95661.25;5046063;28;20044;-77
2023/12/04 12:40:47;;;;;;;0.20;0.20;;;;;;;-4.03;100.00;95653.66;5048336;28;20449;-77
2023/12/04 12:43:33;;;;;;;0.20;0.20;;;;;;;-3.80;100.00;95658.84;5046306;28;20445;-77
2023/12/04 12:46:19;;;;;;;0.20;0.20;;;;;;;-3.92;100.00;95648.00;5047513;28;20044;-77
2023/12/04 12:49:05;;;;;;;0.20;0.20;;;;;;;-4.05;100.00;95650.38;5044595;28;20112;-77
2023/12/04 12:51:51;;;;;;;0.20;0.20;;;;;;;-4.02;100.00;95642.22;5048184;28;20510;-77
2023/12/04 12:54:40;;;;;;;0.20;0.20;;;;;;;-3.97;100.00;95638.09;5045975;28;20046;-77